sensor_id;sensor_type;location;lat;lon;timestamp;temperature;humidity
56542;DHT22;42438;53.174;6.730;2023-05-19T00:00:53;6.20;1.00
56542;DHT22;42438;53.174;6.730;2023-05-19T00:03:24;6.10;1.00
56542;DHT22;42438;53.174;6.730;2023-05-19T00:05:55;6.00;1.00
56542;DHT22;42438;53.174;6.730;2023-05-19T00:08:30;6.10;1.00
56542;DHT22;42438;53.174;6.730;2023-05-19T00:11:02;6.50;1.00
56542;DHT22;42438;53.174;6.730;2023-05-19T00:13:33;6.10;1.00
56542;DHT22;42438;53.174;6.730;2023-05-19T00:16:04;6.00;1.00
56542;DHT22;42438;53.174;6.730;2023-05-19T00:18:35;6.00;1.00
56542;DHT22;42438;53.174;6.730;2023-05-19T00:21:06;6.10;1.00
56542;DHT22;42438;53.174;6.730;2023-05-19T00:23:36;6.10;1.00
56542;DHT22;42438;53.174;6.730;2023-05-19T00:26:07;5.90;1.00
56542;DHT22;42438;53.174;6.730;2023-05-19T00:28:38;5.80;1.00
56542;DHT22;42438;53.174;6.730;2023-05-19T00:31:08;5.70;1.00
56542;DHT22;42438;53.174;6.730;2023-05-19T00:33:39;5.60;1.00
56542;DHT22;42438;53.174;6.730;2023-05-19T00:36:10;5.60;1.00
56542;DHT22;42438;53.174;6.730;2023-05-19T00:38:40;5.60;1.00
56542;DHT22;42438;53.174;6.730;2023-05-19T00:41:11;5.60;1.00
56542;DHT22;42438;53.174;6.730;2023-05-19T00:43:41;5.60;1.00
56542;DHT22;42438;53.174;6.730;2023-05-19T00:46:12;5.50;5.80
56542;DHT22;42438;53.174;6.730;2023-05-19T00:48:43;5.50;14.50
56542;DHT22;42438;53.174;6.730;2023-05-19T00:51:15;5.50;22.40
56542;DHT22;42438;53.174;6.730;2023-05-19T00:53:47;5.40;35.40
56542;DHT22;42438;53.174;6.730;2023-05-19T00:56:20;5.40;48.50
56542;DHT22;42438;53.174;6.730;2023-05-19T00:58:51;5.40;54.00
56542;DHT22;42438;53.174;6.730;2023-05-19T01:01:22;5.40;61.10
56542;DHT22;42438;53.174;6.730;2023-05-19T01:03:56;5.40;70.00
56542;DHT22;42438;53.174;6.730;2023-05-19T01:06:28;5.40;55.00
56542;DHT22;42438;53.174;6.730;2023-05-19T01:08:59;5.40;45.70
56542;DHT22;42438;53.174;6.730;2023-05-19T01:11:29;5.40;46.10
56542;DHT22;42438;53.174;6.730;2023-05-19T01:14:00;5.40;59.60
56542;DHT22;42438;53.174;6.730;2023-05-19T01:16:35;5.40;63.80
56542;DHT22;42438;53.174;6.730;2023-05-19T01:32:41;5.20;99.90
56542;DHT22;42438;53.174;6.730;2023-05-19T01:35:14;5.20;99.90
56542;DHT22;42438;53.174;6.730;2023-05-19T01:37:46;5.20;99.90
56542;DHT22;42438;53.174;6.730;2023-05-19T01:40:18;5.10;99.90
56542;DHT22;42438;53.174;6.730;2023-05-19T01:42:52;5.20;99.90
56542;DHT22;42438;53.174;6.730;2023-05-19T01:45:24;5.20;99.90
56542;DHT22;42438;53.174;6.730;2023-05-19T01:47:56;5.20;99.90
56542;DHT22;42438;53.174;6.730;2023-05-19T01:50:27;5.20;99.90
56542;DHT22;42438;53.174;6.730;2023-05-19T01:52:59;5.70;99.90
56542;DHT22;42438;53.174;6.730;2023-05-19T01:55:30;5.20;99.90
56542;DHT22;42438;53.174;6.730;2023-05-19T01:58:22;5.20;99.90
56542;DHT22;42438;53.174;6.730;2023-05-19T02:09:17;5.10;99.90
56542;DHT22;42438;53.174;6.730;2023-05-19T02:12:00;5.10;99.90
56542;DHT22;42438;53.174;6.730;2023-05-19T02:17:22;5.10;99.90
56542;DHT22;42438;53.174;6.730;2023-05-19T02:19:53;5.10;99.90
56542;DHT22;42438;53.174;6.730;2023-05-19T02:22:24;5.10;99.90
56542;DHT22;42438;53.174;6.730;2023-05-19T02:24:55;5.10;99.90
56542;DHT22;42438;53.174;6.730;2023-05-19T02:27:26;5.00;99.90
56542;DHT22;42438;53.174;6.730;2023-05-19T02:29:57;4.90;99.90
56542;DHT22;42438;53.174;6.730;2023-05-19T02:32:28;4.80;99.90
56542;DHT22;42438;53.174;6.730;2023-05-19T02:34:58;4.80;99.90
56542;DHT22;42438;53.174;6.730;2023-05-19T02:37:29;4.80;99.90
56542;DHT22;42438;53.174;6.730;2023-05-19T02:40:00;4.80;99.90
56542;DHT22;42438;53.174;6.730;2023-05-19T02:42:31;5.30;99.90
56542;DHT22;42438;53.174;6.730;2023-05-19T02:45:01;4.70;99.90
56542;DHT22;42438;53.174;6.730;2023-05-19T02:47:32;4.70;99.90
56542;DHT22;42438;53.174;6.730;2023-05-19T02:50:04;4.60;99.90
56542;DHT22;42438;53.174;6.730;2023-05-19T02:52:35;4.60;99.90
56542;DHT22;42438;53.174;6.730;2023-05-19T02:55:05;4.60;99.90
56542;DHT22;42438;53.174;6.730;2023-05-19T02:57:36;4.70;99.90
56542;DHT22;42438;53.174;6.730;2023-05-19T03:00:07;4.70;99.90
56542;DHT22;42438;53.174;6.730;2023-05-19T03:02:38;4.70;99.90
56542;DHT22;42438;53.174;6.730;2023-05-19T03:05:10;4.70;99.90
56542;DHT22;42438;53.174;6.730;2023-05-19T03:07:41;4.70;99.90
56542;DHT22;42438;53.174;6.730;2023-05-19T03:10:11;4.70;99.90
56542;DHT22;42438;53.174;6.730;2023-05-19T03:12:42;4.70;99.90
56542;DHT22;42438;53.174;6.730;2023-05-19T03:15:13;4.70;99.90
56542;DHT22;42438;53.174;6.730;2023-05-19T03:17:44;4.70;99.90
56542;DHT22;42438;53.174;6.730;2023-05-19T03:20:15;4.60;99.90
56542;DHT22;42438;53.174;6.730;2023-05-19T03:22:45;4.50;99.90
56542;DHT22;42438;53.174;6.730;2023-05-19T03:25:16;4.50;99.90
56542;DHT22;42438;53.174;6.730;2023-05-19T03:27:46;4.40;99.90
56542;DHT22;42438;53.174;6.730;2023-05-19T03:30:17;4.40;99.90
56542;DHT22;42438;53.174;6.730;2023-05-19T03:32:48;4.40;99.90
56542;DHT22;42438;53.174;6.730;2023-05-19T03:35:18;4.40;99.90
56542;DHT22;42438;53.174;6.730;2023-05-19T03:37:49;4.40;99.90
56542;DHT22;42438;53.174;6.730;2023-05-19T03:40:20;4.40;99.90
56542;DHT22;42438;53.174;6.730;2023-05-19T03:42:50;4.40;99.90
56542;DHT22;42438;53.174;6.730;2023-05-19T03:45:23;4.50;99.90
56542;DHT22;42438;53.174;6.730;2023-05-19T03:47:54;4.60;99.90
56542;DHT22;42438;53.174;6.730;2023-05-19T03:50:25;4.80;99.90
56542;DHT22;42438;53.174;6.730;2023-05-19T03:52:59;4.90;99.90
56542;DHT22;42438;53.174;6.730;2023-05-19T03:55:29;5.00;99.90
56542;DHT22;42438;53.174;6.730;2023-05-19T03:58:00;5.00;99.90
56542;DHT22;42438;53.174;6.730;2023-05-19T04:00:31;4.90;99.90
56542;DHT22;42438;53.174;6.730;2023-05-19T04:03:02;4.90;99.90
56542;DHT22;42438;53.174;6.730;2023-05-19T04:05:33;4.90;99.90
56542;DHT22;42438;53.174;6.730;2023-05-19T04:08:04;5.00;99.90
56542;DHT22;42438;53.174;6.730;2023-05-19T04:10:34;5.10;99.90
56542;DHT22;42438;53.174;6.730;2023-05-19T04:13:05;5.20;99.90
56542;DHT22;42438;53.174;6.730;2023-05-19T04:15:36;5.30;99.90
56542;DHT22;42438;53.174;6.730;2023-05-19T04:18:06;5.40;99.90
56542;DHT22;42438;53.174;6.730;2023-05-19T04:20:37;5.50;99.90
56542;DHT22;42438;53.174;6.730;2023-05-19T04:23:08;5.50;99.90
56542;DHT22;42438;53.174;6.730;2023-05-19T04:25:38;5.40;99.90
56542;DHT22;42438;53.174;6.730;2023-05-19T04:28:10;5.30;99.90
56542;DHT22;42438;53.174;6.730;2023-05-19T04:30:40;5.20;99.90
56542;DHT22;42438;53.174;6.730;2023-05-19T04:33:11;5.20;99.90
56542;DHT22;42438;53.174;6.730;2023-05-19T04:35:42;5.30;99.90
56542;DHT22;42438;53.174;6.730;2023-05-19T04:38:13;5.30;99.90
56542;DHT22;42438;53.174;6.730;2023-05-19T04:40:48;5.30;99.90
56542;DHT22;42438;53.174;6.730;2023-05-19T04:43:19;5.50;99.90
56542;DHT22;42438;53.174;6.730;2023-05-19T04:45:51;5.50;99.90
56542;DHT22;42438;53.174;6.730;2023-05-19T04:48:22;5.70;99.90
56542;DHT22;42438;53.174;6.730;2023-05-19T04:50:52;5.80;99.90
56542;DHT22;42438;53.174;6.730;2023-05-19T04:53:23;5.90;99.90
56542;DHT22;42438;53.174;6.730;2023-05-19T04:55:55;6.10;99.90
56542;DHT22;42438;53.174;6.730;2023-05-19T04:58:26;6.30;99.90
56542;DHT22;42438;53.174;6.730;2023-05-19T05:00:57;6.60;1.00
56542;DHT22;42438;53.174;6.730;2023-05-19T05:03:27;7.50;1.00
56542;DHT22;42438;53.174;6.730;2023-05-19T05:06:00;7.20;1.00
56542;DHT22;42438;53.174;6.730;2023-05-19T05:08:30;7.30;1.00
56542;DHT22;42438;53.174;6.730;2023-05-19T05:11:01;7.40;1.00
56542;DHT22;42438;53.174;6.730;2023-05-19T05:13:32;7.70;1.00
56542;DHT22;42438;53.174;6.730;2023-05-19T05:16:03;7.90;1.00
56542;DHT22;42438;53.174;6.730;2023-05-19T05:18:35;7.90;1.00
56542;DHT22;42438;53.174;6.730;2023-05-19T05:21:08;8.10;1.00
56542;DHT22;42438;53.174;6.730;2023-05-19T05:23:39;8.20;1.00
56542;DHT22;42438;53.174;6.730;2023-05-19T05:26:16;8.40;1.00
56542;DHT22;42438;53.174;6.730;2023-05-19T05:28:49;8.50;1.00
56542;DHT22;42438;53.174;6.730;2023-05-19T05:31:20;8.70;1.00
56542;DHT22;42438;53.174;6.730;2023-05-19T05:33:50;8.70;1.00
56542;DHT22;42438;53.174;6.730;2023-05-19T05:36:21;8.80;1.00
56542;DHT22;42438;53.174;6.730;2023-05-19T05:38:51;9.00;1.00
56542;DHT22;42438;53.174;6.730;2023-05-19T05:41:22;9.10;1.00
56542;DHT22;42438;53.174;6.730;2023-05-19T05:43:53;9.40;1.00
56542;DHT22;42438;53.174;6.730;2023-05-19T05:46:23;10.50;1.00
56542;DHT22;42438;53.174;6.730;2023-05-19T05:48:54;12.30;99.90
56542;DHT22;42438;53.174;6.730;2023-05-19T05:51:25;13.20;96.90
56542;DHT22;42438;53.174;6.730;2023-05-19T05:53:56;14.30;99.90
56542;DHT22;42438;53.174;6.730;2023-05-19T05:56:27;15.20;1.00
56542;DHT22;42438;53.174;6.730;2023-05-19T05:58:59;15.80;99.90
56542;DHT22;42438;53.174;6.730;2023-05-19T06:01:29;16.30;1.00
56542;DHT22;42438;53.174;6.730;2023-05-19T06:04:00;16.60;99.90
56542;DHT22;42438;53.174;6.730;2023-05-19T06:06:30;16.70;99.90
56542;DHT22;42438;53.174;6.730;2023-05-19T06:09:02;17.00;99.90
56542;DHT22;42438;53.174;6.730;2023-05-19T06:11:33;17.10;68.30
56542;DHT22;42438;53.174;6.730;2023-05-19T06:14:03;17.30;25.10
56542;DHT22;42438;53.174;6.730;2023-05-19T06:16:34;17.30;1.50
56542;DHT22;42438;53.174;6.730;2023-05-19T06:19:04;17.20;1.00
56542;DHT22;42438;53.174;6.730;2023-05-19T06:21:35;17.00;1.00
56542;DHT22;42438;53.174;6.730;2023-05-19T06:24:06;16.40;1.00
56542;DHT22;42438;53.174;6.730;2023-05-19T06:26:36;15.90;5.60
56542;DHT22;42438;53.174;6.730;2023-05-19T06:29:07;15.50;18.20
56542;DHT22;42438;53.174;6.730;2023-05-19T06:31:38;15.10;41.70
56542;DHT22;42438;53.174;6.730;2023-05-19T06:34:08;14.60;57.40
56542;DHT22;42438;53.174;6.730;2023-05-19T06:36:41;14.40;99.90
56542;DHT22;42438;53.174;6.730;2023-05-19T06:39:12;14.20;99.90
56542;DHT22;42438;53.174;6.730;2023-05-19T06:41:44;14.10;99.90
56542;DHT22;42438;53.174;6.730;2023-05-19T06:44:15;14.00;99.90
56542;DHT22;42438;53.174;6.730;2023-05-19T06:46:45;13.90;99.90
56542;DHT22;42438;53.174;6.730;2023-05-19T06:49:16;14.00;99.90
56542;DHT22;42438;53.174;6.730;2023-05-19T06:51:46;13.90;99.90
56542;DHT22;42438;53.174;6.730;2023-05-19T06:54:18;13.90;99.90
56542;DHT22;42438;53.174;6.730;2023-05-19T06:56:49;13.70;99.90
56542;DHT22;42438;53.174;6.730;2023-05-19T06:59:19;13.60;99.90
56542;DHT22;42438;53.174;6.730;2023-05-19T07:01:51;13.50;99.90
56542;DHT22;42438;53.174;6.730;2023-05-19T07:04:22;13.50;99.90
56542;DHT22;42438;53.174;6.730;2023-05-19T07:06:53;13.50;99.90
56542;DHT22;42438;53.174;6.730;2023-05-19T07:09:24;13.60;99.90
56542;DHT22;42438;53.174;6.730;2023-05-19T07:11:55;13.60;99.90
56542;DHT22;42438;53.174;6.730;2023-05-19T07:14:26;13.70;94.40
56542;DHT22;42438;53.174;6.730;2023-05-19T07:16:56;13.80;76.90
56542;DHT22;42438;53.174;6.730;2023-05-19T07:19:27;13.90;35.30
56542;DHT22;42438;53.174;6.730;2023-05-19T07:21:58;13.90;10.70
56542;DHT22;42438;53.174;6.730;2023-05-19T07:24:28;13.90;1.00
56542;DHT22;42438;53.174;6.730;2023-05-19T07:27:00;14.10;1.00
56542;DHT22;42438;53.174;6.730;2023-05-19T07:29:31;14.00;1.00
56542;DHT22;42438;53.174;6.730;2023-05-19T07:32:01;14.00;1.00
56542;DHT22;42438;53.174;6.730;2023-05-19T07:34:32;14.10;1.00
56542;DHT22;42438;53.174;6.730;2023-05-19T07:37:03;14.20;1.00
56542;DHT22;42438;53.174;6.730;2023-05-19T07:39:34;14.30;1.00
56542;DHT22;42438;53.174;6.730;2023-05-19T07:42:05;14.30;1.00
56542;DHT22;42438;53.174;6.730;2023-05-19T07:44:35;14.40;1.00
56542;DHT22;42438;53.174;6.730;2023-05-19T07:47:06;14.50;1.00
56542;DHT22;42438;53.174;6.730;2023-05-19T07:49:37;14.50;1.00
56542;DHT22;42438;53.174;6.730;2023-05-19T07:52:08;14.60;1.00
56542;DHT22;42438;53.174;6.730;2023-05-19T07:54:38;14.70;1.00
56542;DHT22;42438;53.174;6.730;2023-05-19T07:57:09;14.80;1.00
56542;DHT22;42438;53.174;6.730;2023-05-19T07:59:39;14.90;1.00
56542;DHT22;42438;53.174;6.730;2023-05-19T08:02:10;14.80;1.00
56542;DHT22;42438;53.174;6.730;2023-05-19T08:04:41;14.90;1.00
56542;DHT22;42438;53.174;6.730;2023-05-19T08:07:12;15.00;1.00
56542;DHT22;42438;53.174;6.730;2023-05-19T08:09:42;15.00;1.00
56542;DHT22;42438;53.174;6.730;2023-05-19T08:12:13;15.10;1.00
56542;DHT22;42438;53.174;6.730;2023-05-19T08:14:43;15.20;1.00
56542;DHT22;42438;53.174;6.730;2023-05-19T08:17:14;15.20;1.00
56542;DHT22;42438;53.174;6.730;2023-05-19T08:19:45;15.30;1.00
56542;DHT22;42438;53.174;6.730;2023-05-19T08:22:16;15.30;1.00
56542;DHT22;42438;53.174;6.730;2023-05-19T08:24:46;15.30;1.00
56542;DHT22;42438;53.174;6.730;2023-05-19T08:27:19;15.30;1.00
56542;DHT22;42438;53.174;6.730;2023-05-19T08:29:49;15.40;1.00
56542;DHT22;42438;53.174;6.730;2023-05-19T08:32:20;15.30;1.00
56542;DHT22;42438;53.174;6.730;2023-05-19T08:34:50;15.30;1.00
56542;DHT22;42438;53.174;6.730;2023-05-19T08:37:21;15.50;1.00
56542;DHT22;42438;53.174;6.730;2023-05-19T08:39:52;15.50;1.00
56542;DHT22;42438;53.174;6.730;2023-05-19T08:42:22;15.50;1.00
56542;DHT22;42438;53.174;6.730;2023-05-19T08:44:53;15.60;1.00
56542;DHT22;42438;53.174;6.730;2023-05-19T08:47:24;15.80;1.00
56542;DHT22;42438;53.174;6.730;2023-05-19T08:50:03;15.90;1.00
56542;DHT22;42438;53.174;6.730;2023-05-19T08:52:57;16.10;1.00
56542;DHT22;42438;53.174;6.730;2023-05-19T08:55:35;16.20;1.00
56542;DHT22;42438;53.174;6.730;2023-05-19T08:58:10;16.10;1.00
56542;DHT22;42438;53.174;6.730;2023-05-19T09:00:43;16.20;1.00
56542;DHT22;42438;53.174;6.730;2023-05-19T09:03:15;16.30;1.00
56542;DHT22;42438;53.174;6.730;2023-05-19T09:05:47;16.30;1.00
56542;DHT22;42438;53.174;6.730;2023-05-19T09:08:18;16.30;1.00
56542;DHT22;42438;53.174;6.730;2023-05-19T09:10:48;16.40;1.00
56542;DHT22;42438;53.174;6.730;2023-05-19T09:13:19;16.50;1.00
56542;DHT22;42438;53.174;6.730;2023-05-19T09:15:51;16.60;1.00
56542;DHT22;42438;53.174;6.730;2023-05-19T09:18:23;16.80;1.00
56542;DHT22;42438;53.174;6.730;2023-05-19T09:20:58;16.80;1.00
56542;DHT22;42438;53.174;6.730;2023-05-19T09:23:33;16.80;1.00
56542;DHT22;42438;53.174;6.730;2023-05-19T09:26:04;16.80;1.00
56542;DHT22;42438;53.174;6.730;2023-05-19T09:28:39;16.80;1.00
56542;DHT22;42438;53.174;6.730;2023-05-19T09:31:10;16.80;1.00
56542;DHT22;42438;53.174;6.730;2023-05-19T09:33:41;16.90;1.00
56542;DHT22;42438;53.174;6.730;2023-05-19T09:36:12;16.90;1.00
56542;DHT22;42438;53.174;6.730;2023-05-19T09:38:44;17.10;1.00
56542;DHT22;42438;53.174;6.730;2023-05-19T09:41:15;17.10;1.00
56542;DHT22;42438;53.174;6.730;2023-05-19T09:43:53;17.10;1.00
56542;DHT22;42438;53.174;6.730;2023-05-19T09:46:25;17.30;1.00
56542;DHT22;42438;53.174;6.730;2023-05-19T09:48:59;17.30;1.00
56542;DHT22;42438;53.174;6.730;2023-05-19T09:51:29;17.40;1.00
56542;DHT22;42438;53.174;6.730;2023-05-19T09:54:02;17.40;1.00
56542;DHT22;42438;53.174;6.730;2023-05-19T09:56:33;17.50;1.00
56542;DHT22;42438;53.174;6.730;2023-05-19T09:59:05;17.60;1.00
56542;DHT22;42438;53.174;6.730;2023-05-19T10:01:36;17.90;1.00
56542;DHT22;42438;53.174;6.730;2023-05-19T10:04:11;17.80;1.00
56542;DHT22;42438;53.174;6.730;2023-05-19T10:06:43;17.90;1.00
56542;DHT22;42438;53.174;6.730;2023-05-19T10:09:14;17.90;1.00
56542;DHT22;42438;53.174;6.730;2023-05-19T10:11:45;18.10;1.00
56542;DHT22;42438;53.174;6.730;2023-05-19T10:14:18;18.20;1.00
56542;DHT22;42438;53.174;6.730;2023-05-19T10:16:52;18.10;1.00
56542;DHT22;42438;53.174;6.730;2023-05-19T10:19:24;17.90;1.00
56542;DHT22;42438;53.174;6.730;2023-05-19T10:21:55;17.70;1.00
56542;DHT22;42438;53.174;6.730;2023-05-19T10:24:26;17.80;1.00
56542;DHT22;42438;53.174;6.730;2023-05-19T10:27:01;18.10;1.00
56542;DHT22;42438;53.174;6.730;2023-05-19T10:29:36;18.30;1.00
56542;DHT22;42438;53.174;6.730;2023-05-19T10:32:15;18.50;1.00
56542;DHT22;42438;53.174;6.730;2023-05-19T10:40:28;18.70;1.00
56542;DHT22;42438;53.174;6.730;2023-05-19T10:43:12;18.80;1.00
56542;DHT22;42438;53.174;6.730;2023-05-19T10:45:52;19.10;1.00
56542;DHT22;42438;53.174;6.730;2023-05-19T10:48:23;19.30;1.00
56542;DHT22;42438;53.174;6.730;2023-05-19T10:50:53;19.50;1.00
56542;DHT22;42438;53.174;6.730;2023-05-19T10:53:31;19.60;1.00
56542;DHT22;42438;53.174;6.730;2023-05-19T10:56:02;19.60;1.00
56542;DHT22;42438;53.174;6.730;2023-05-19T11:01:15;19.80;1.00
56542;DHT22;42438;53.174;6.730;2023-05-19T11:03:53;19.90;1.00
56542;DHT22;42438;53.174;6.730;2023-05-19T11:06:28;19.90;1.00
56542;DHT22;42438;53.174;6.730;2023-05-19T11:09:11;19.90;1.00
56542;DHT22;42438;53.174;6.730;2023-05-19T11:11:50;19.90;1.00
56542;DHT22;42438;53.174;6.730;2023-05-19T11:14:22;19.80;1.00
56542;DHT22;42438;53.174;6.730;2023-05-19T11:16:57;19.90;1.00
56542;DHT22;42438;53.174;6.730;2023-05-19T11:19:29;20.10;1.00
56542;DHT22;42438;53.174;6.730;2023-05-19T11:22:11;20.10;1.00
56542;DHT22;42438;53.174;6.730;2023-05-19T11:24:46;20.20;1.00
56542;DHT22;42438;53.174;6.730;2023-05-19T11:27:30;20.10;1.00
56542;DHT22;42438;53.174;6.730;2023-05-19T11:32:36;20.00;1.00
56542;DHT22;42438;53.174;6.730;2023-05-19T11:35:28;19.90;1.00
56542;DHT22;42438;53.174;6.730;2023-05-19T11:38:00;19.90;1.00
56542;DHT22;42438;53.174;6.730;2023-05-19T11:40:31;20.00;1.00
56542;DHT22;42438;53.174;6.730;2023-05-19T11:43:02;20.10;1.00
56542;DHT22;42438;53.174;6.730;2023-05-19T11:45:33;20.00;1.00
56542;DHT22;42438;53.174;6.730;2023-05-19T11:48:04;20.10;1.00
56542;DHT22;42438;53.174;6.730;2023-05-19T11:50:36;20.10;1.00
56542;DHT22;42438;53.174;6.730;2023-05-19T11:53:10;20.10;1.00
56542;DHT22;42438;53.174;6.730;2023-05-19T11:55:46;20.10;1.00
56542;DHT22;42438;53.174;6.730;2023-05-19T11:58:24;20.10;1.00
56542;DHT22;42438;53.174;6.730;2023-05-19T12:00:56;19.90;1.00
56542;DHT22;42438;53.174;6.730;2023-05-19T12:03:26;20.00;1.00
56542;DHT22;42438;53.174;6.730;2023-05-19T12:05:58;20.10;1.00
56542;DHT22;42438;53.174;6.730;2023-05-19T12:08:29;20.40;1.00
56542;DHT22;42438;53.174;6.730;2023-05-19T12:11:00;20.60;1.00
56542;DHT22;42438;53.174;6.730;2023-05-19T12:13:30;20.60;1.00
56542;DHT22;42438;53.174;6.730;2023-05-19T12:16:03;20.20;1.00
56542;DHT22;42438;53.174;6.730;2023-05-19T12:18:37;20.20;1.00
56542;DHT22;42438;53.174;6.730;2023-05-19T12:21:07;20.30;1.00
56542;DHT22;42438;53.174;6.730;2023-05-19T12:23:38;20.50;1.00
56542;DHT22;42438;53.174;6.730;2023-05-19T12:26:10;20.60;1.00
56542;DHT22;42438;53.174;6.730;2023-05-19T12:28:44;20.60;1.00
56542;DHT22;42438;53.174;6.730;2023-05-19T12:31:14;20.60;1.00
56542;DHT22;42438;53.174;6.730;2023-05-19T12:33:48;20.50;1.00
56542;DHT22;42438;53.174;6.730;2023-05-19T12:36:23;20.40;1.00
56542;DHT22;42438;53.174;6.730;2023-05-19T12:38:54;20.50;1.00
56542;DHT22;42438;53.174;6.730;2023-05-19T12:41:25;20.50;1.00
56542;DHT22;42438;53.174;6.730;2023-05-19T12:43:56;20.60;1.00
56542;DHT22;42438;53.174;6.730;2023-05-19T12:46:27;20.70;1.00
56542;DHT22;42438;53.174;6.730;2023-05-19T12:49:02;20.60;1.00
56542;DHT22;42438;53.174;6.730;2023-05-19T12:51:32;20.60;1.00
56542;DHT22;42438;53.174;6.730;2023-05-19T12:54:03;20.40;1.00
56542;DHT22;42438;53.174;6.730;2023-05-19T12:56:34;20.30;1.00
56542;DHT22;42438;53.174;6.730;2023-05-19T12:59:04;20.10;1.00
56542;DHT22;42438;53.174;6.730;2023-05-19T13:01:35;20.10;1.00
56542;DHT22;42438;53.174;6.730;2023-05-19T13:04:06;20.10;1.00
56542;DHT22;42438;53.174;6.730;2023-05-19T13:06:36;20.30;1.00
56542;DHT22;42438;53.174;6.730;2023-05-19T13:09:07;20.40;1.00
56542;DHT22;42438;53.174;6.730;2023-05-19T13:11:38;20.50;1.00
56542;DHT22;42438;53.174;6.730;2023-05-19T13:14:11;20.50;1.00
56542;DHT22;42438;53.174;6.730;2023-05-19T13:16:41;20.40;1.00
56542;DHT22;42438;53.174;6.730;2023-05-19T13:19:14;20.40;1.00
56542;DHT22;42438;53.174;6.730;2023-05-19T13:21:45;20.30;1.00
56542;DHT22;42438;53.174;6.730;2023-05-19T13:24:22;20.50;1.00
56542;DHT22;42438;53.174;6.730;2023-05-19T13:26:52;20.70;1.00
56542;DHT22;42438;53.174;6.730;2023-05-19T13:29:23;20.90;1.00
56542;DHT22;42438;53.174;6.730;2023-05-19T13:31:54;20.90;1.00
56542;DHT22;42438;53.174;6.730;2023-05-19T13:34:24;20.90;1.00
56542;DHT22;42438;53.174;6.730;2023-05-19T13:36:55;21.00;1.00
56542;DHT22;42438;53.174;6.730;2023-05-19T13:39:26;21.20;1.00
56542;DHT22;42438;53.174;6.730;2023-05-19T13:41:57;21.30;1.00
56542;DHT22;42438;53.174;6.730;2023-05-19T13:44:27;21.40;1.00
56542;DHT22;42438;53.174;6.730;2023-05-19T13:46:58;21.50;1.00
56542;DHT22;42438;53.174;6.730;2023-05-19T13:49:29;21.60;1.00
56542;DHT22;42438;53.174;6.730;2023-05-19T13:51:59;21.40;1.00
56542;DHT22;42438;53.174;6.730;2023-05-19T13:54:30;21.20;1.00
56542;DHT22;42438;53.174;6.730;2023-05-19T13:57:01;21.20;1.00
56542;DHT22;42438;53.174;6.730;2023-05-19T13:59:31;21.30;1.00
56542;DHT22;42438;53.174;6.730;2023-05-19T14:02:02;21.40;1.00
56542;DHT22;42438;53.174;6.730;2023-05-19T14:04:37;21.40;1.00
56542;DHT22;42438;53.174;6.730;2023-05-19T14:07:08;21.30;1.00
56542;DHT22;42438;53.174;6.730;2023-05-19T14:09:39;21.20;1.00
56542;DHT22;42438;53.174;6.730;2023-05-19T14:12:10;21.30;1.00
56542;DHT22;42438;53.174;6.730;2023-05-19T14:14:41;21.10;1.00
56542;DHT22;42438;53.174;6.730;2023-05-19T14:17:12;20.70;1.00
56542;DHT22;42438;53.174;6.730;2023-05-19T14:19:43;20.50;1.00
56542;DHT22;42438;53.174;6.730;2023-05-19T14:22:13;20.40;1.00
56542;DHT22;42438;53.174;6.730;2023-05-19T14:24:44;20.40;1.00
56542;DHT22;42438;53.174;6.730;2023-05-19T14:27:15;20.60;1.00
56542;DHT22;42438;53.174;6.730;2023-05-19T14:29:46;20.60;1.00
56542;DHT22;42438;53.174;6.730;2023-05-19T14:32:18;20.70;1.00
56542;DHT22;42438;53.174;6.730;2023-05-19T14:34:48;20.70;1.00
56542;DHT22;42438;53.174;6.730;2023-05-19T14:37:22;20.90;1.00
56542;DHT22;42438;53.174;6.730;2023-05-19T14:39:52;21.00;1.00
56542;DHT22;42438;53.174;6.730;2023-05-19T14:42:23;21.10;1.00
56542;DHT22;42438;53.174;6.730;2023-05-19T14:44:54;21.00;1.00
56542;DHT22;42438;53.174;6.730;2023-05-19T14:47:25;20.80;1.00
56542;DHT22;42438;53.174;6.730;2023-05-19T14:49:55;20.80;1.00
56542;DHT22;42438;53.174;6.730;2023-05-19T14:52:26;21.00;1.00
56542;DHT22;42438;53.174;6.730;2023-05-19T14:54:57;21.10;1.00
56542;DHT22;42438;53.174;6.730;2023-05-19T14:57:27;21.20;1.00
56542;DHT22;42438;53.174;6.730;2023-05-19T14:59:58;21.30;1.00
56542;DHT22;42438;53.174;6.730;2023-05-19T15:02:29;21.20;1.00
56542;DHT22;42438;53.174;6.730;2023-05-19T15:04:59;21.10;1.00
56542;DHT22;42438;53.174;6.730;2023-05-19T15:07:30;20.90;1.00
56542;DHT22;42438;53.174;6.730;2023-05-19T15:10:01;21.00;1.00
56542;DHT22;42438;53.174;6.730;2023-05-19T15:12:32;20.90;1.00
56542;DHT22;42438;53.174;6.730;2023-05-19T15:15:03;21.00;1.00
56542;DHT22;42438;53.174;6.730;2023-05-19T15:17:34;21.10;1.00
56542;DHT22;42438;53.174;6.730;2023-05-19T15:20:05;21.30;1.00
56542;DHT22;42438;53.174;6.730;2023-05-19T15:22:36;21.40;1.00
56542;DHT22;42438;53.174;6.730;2023-05-19T15:25:07;21.30;1.00
56542;DHT22;42438;53.174;6.730;2023-05-19T15:27:38;21.20;1.00
56542;DHT22;42438;53.174;6.730;2023-05-19T15:30:09;21.20;1.00
56542;DHT22;42438;53.174;6.730;2023-05-19T15:32:39;21.10;1.00
56542;DHT22;42438;53.174;6.730;2023-05-19T15:35:10;21.30;1.00
56542;DHT22;42438;53.174;6.730;2023-05-19T15:37:41;21.20;1.00
56542;DHT22;42438;53.174;6.730;2023-05-19T15:40:11;21.10;1.00
56542;DHT22;42438;53.174;6.730;2023-05-19T15:42:42;21.20;1.00
56542;DHT22;42438;53.174;6.730;2023-05-19T15:45:13;21.30;1.00
56542;DHT22;42438;53.174;6.730;2023-05-19T15:47:43;21.30;1.00
56542;DHT22;42438;53.174;6.730;2023-05-19T15:50:14;21.10;1.00
56542;DHT22;42438;53.174;6.730;2023-05-19T15:52:44;20.90;1.00
56542;DHT22;42438;53.174;6.730;2023-05-19T15:55:15;21.00;1.00
56542;DHT22;42438;53.174;6.730;2023-05-19T15:57:46;21.10;1.00
56542;DHT22;42438;53.174;6.730;2023-05-19T16:00:17;21.30;1.00
56542;DHT22;42438;53.174;6.730;2023-05-19T16:02:47;21.30;1.00
56542;DHT22;42438;53.174;6.730;2023-05-19T16:05:18;21.50;1.00
56542;DHT22;42438;53.174;6.730;2023-05-19T16:07:49;21.50;1.00
56542;DHT22;42438;53.174;6.730;2023-05-19T16:10:19;21.20;1.00
56542;DHT22;42438;53.174;6.730;2023-05-19T16:12:50;21.10;1.00
56542;DHT22;42438;53.174;6.730;2023-05-19T16:15:20;20.80;1.00
56542;DHT22;42438;53.174;6.730;2023-05-19T16:17:51;20.80;1.00
56542;DHT22;42438;53.174;6.730;2023-05-19T16:20:24;20.80;1.00
56542;DHT22;42438;53.174;6.730;2023-05-19T16:22:57;20.90;1.00
56542;DHT22;42438;53.174;6.730;2023-05-19T16:25:27;20.90;1.00
56542;DHT22;42438;53.174;6.730;2023-05-19T16:27:58;21.00;1.00
56542;DHT22;42438;53.174;6.730;2023-05-19T16:30:29;21.00;1.00
56542;DHT22;42438;53.174;6.730;2023-05-19T16:33:00;20.80;1.00
56542;DHT22;42438;53.174;6.730;2023-05-19T16:35:31;20.30;1.00
56542;DHT22;42438;53.174;6.730;2023-05-19T16:38:01;20.00;1.00
56542;DHT22;42438;53.174;6.730;2023-05-19T16:40:32;19.70;1.00
56542;DHT22;42438;53.174;6.730;2023-05-19T16:43:03;19.70;1.00
56542;DHT22;42438;53.174;6.730;2023-05-19T16:45:33;19.80;1.00
56542;DHT22;42438;53.174;6.730;2023-05-19T16:48:04;19.80;1.00
56542;DHT22;42438;53.174;6.730;2023-05-19T16:50:35;19.60;1.00